sensor_id;sensor_type;location;lat;lon;timestamp;P1;durP1;ratioP1;P2;durP2;ratioP2
8871;SDS011;4472;52.092;9.820;2022-08-24T18:27:30;3.63;;;2.50;;
8871;SDS011;4472;52.092;9.820;2022-08-24T18:30:20;4.70;;;2.47;;
8871;SDS011;4472;52.092;9.820;2022-08-24T18:33:08;3.10;;;2.13;;
8871;SDS011;4472;52.092;9.820;2022-08-24T18:35:56;5.10;;;2.30;;
8871;SDS011;4472;52.092;9.820;2022-08-24T18:38:43;4.10;;;2.10;;
8871;SDS011;4472;52.092;9.820;2022-08-24T18:41:31;4.87;;;2.27;;
8871;SDS011;4472;52.092;9.820;2022-08-24T18:44:22;2.80;;;2.00;;
8871;SDS011;4472;52.092;9.820;2022-08-24T18:47:10;7.27;;;2.40;;
8871;SDS011;4472;52.092;9.820;2022-08-24T18:49:57;4.77;;;2.20;;
8871;SDS011;4472;52.092;9.820;2022-08-24T18:52:45;3.93;;;2.20;;
8871;SDS011;4472;52.092;9.820;2022-08-24T18:55:33;6.37;;;2.50;;
8871;SDS011;4472;52.092;9.820;2022-08-24T18:58:21;5.90;;;2.40;;
8871;SDS011;4472;52.092;9.820;2022-08-24T19:01:11;7.57;;;2.23;;
8871;SDS011;4472;52.092;9.820;2022-08-24T19:03:58;5.60;;;2.20;;
8871;SDS011;4472;52.092;9.820;2022-08-24T19:06:46;5.53;;;2.00;;
8871;SDS011;4472;52.092;9.820;2022-08-24T19:09:33;3.70;;;2.17;;
8871;SDS011;4472;52.092;9.820;2022-08-24T19:12:21;4.03;;;2.10;;
8871;SDS011;4472;52.092;9.820;2022-08-24T19:15:09;4.07;;;1.97;;
8871;SDS011;4472;52.092;9.820;2022-08-24T19:17:58;4.83;;;2.33;;
8871;SDS011;4472;52.092;9.820;2022-08-24T19:20:46;7.63;;;2.33;;
8871;SDS011;4472;52.092;9.820;2022-08-24T19:23:34;2.97;;;2.10;;
8871;SDS011;4472;52.092;9.820;2022-08-24T19:26:23;3.73;;;2.40;;
8871;SDS011;4472;52.092;9.820;2022-08-24T19:29:11;3.23;;;2.60;;
8871;SDS011;4472;52.092;9.820;2022-08-24T19:31:58;4.40;;;2.43;;
8871;SDS011;4472;52.092;9.820;2022-08-24T19:34:47;4.37;;;1.90;;
8871;SDS011;4472;52.092;9.820;2022-08-24T19:37:34;3.87;;;2.30;;
8871;SDS011;4472;52.092;9.820;2022-08-24T19:40:23;6.10;;;2.33;;
8871;SDS011;4472;52.092;9.820;2022-08-24T19:43:10;2.67;;;2.10;;
8871;SDS011;4472;52.092;9.820;2022-08-24T19:45:58;2.83;;;2.17;;
8871;SDS011;4472;52.092;9.820;2022-08-24T19:48:49;5.93;;;2.20;;
8871;SDS011;4472;52.092;9.820;2022-08-24T19:51:38;4.73;;;2.70;;
8871;SDS011;4472;52.092;9.820;2022-08-24T19:54:26;7.77;;;3.40;;
8871;SDS011;4472;52.092;9.820;2022-08-24T19:57:27;3.50;;;2.17;;
8871;SDS011;4472;52.092;9.820;2022-08-24T20:00:22;5.07;;;2.80;;
8871;SDS011;4472;52.092;9.820;2022-08-24T20:03:10;5.67;;;2.50;;
8871;SDS011;4472;52.092;9.820;2022-08-24T20:05:58;5.43;;;2.40;;
8871;SDS011;4472;52.092;9.820;2022-08-24T20:08:47;5.47;;;2.40;;
8871;SDS011;4472;52.092;9.820;2022-08-24T20:11:37;3.30;;;2.23;;
8871;SDS011;4472;52.092;9.820;2022-08-24T20:14:25;2.80;;;2.13;;
8871;SDS011;4472;52.092;9.820;2022-08-24T20:17:13;3.33;;;2.37;;
8871;SDS011;4472;52.092;9.820;2022-08-24T20:20:01;7.13;;;2.30;;
8871;SDS011;4472;52.092;9.820;2022-08-24T20:22:50;3.40;;;2.50;;
8871;SDS011;4472;52.092;9.820;2022-08-24T20:25:39;2.90;;;2.47;;
8871;SDS011;4472;52.092;9.820;2022-08-24T20:28:31;3.10;;;2.53;;
8871;SDS011;4472;52.092;9.820;2022-08-24T20:31:20;3.03;;;2.50;;
8871;SDS011;4472;52.092;9.820;2022-08-24T20:34:08;3.80;;;2.57;;
8871;SDS011;4472;52.092;9.820;2022-08-24T20:36:55;6.20;;;2.57;;
8871;SDS011;4472;52.092;9.820;2022-08-24T20:39:44;4.27;;;2.80;;
8871;SDS011;4472;52.092;9.820;2022-08-24T20:42:33;3.40;;;2.47;;
8871;SDS011;4472;52.092;9.820;2022-08-24T20:45:20;6.60;;;2.43;;
8871;SDS011;4472;52.092;9.820;2022-08-24T20:48:08;3.60;;;2.77;;
8871;SDS011;4472;52.092;9.820;2022-08-24T20:50:56;6.03;;;3.00;;
8871;SDS011;4472;52.092;9.820;2022-08-24T20:53:44;5.10;;;2.80;;
8871;SDS011;4472;52.092;9.820;2022-08-24T20:56:34;3.93;;;2.77;;
8871;SDS011;4472;52.092;9.820;2022-08-24T20:59:23;3.77;;;2.90;;
8871;SDS011;4472;52.092;9.820;2022-08-24T21:02:11;5.47;;;2.97;;
8871;SDS011;4472;52.092;9.820;2022-08-24T21:04:58;4.30;;;2.80;;
8871;SDS011;4472;52.092;9.820;2022-08-24T21:07:46;5.77;;;2.87;;
8871;SDS011;4472;52.092;9.820;2022-08-24T21:10:38;4.63;;;2.73;;
8871;SDS011;4472;52.092;9.820;2022-08-24T21:13:26;3.90;;;3.00;;
8871;SDS011;4472;52.092;9.820;2022-08-24T21:16:15;5.10;;;2.73;;
8871;SDS011;4472;52.092;9.820;2022-08-24T21:19:03;7.50;;;3.20;;
8871;SDS011;4472;52.092;9.820;2022-08-24T21:21:50;5.60;;;2.80;;
8871;SDS011;4472;52.092;9.820;2022-08-24T21:24:38;5.53;;;2.90;;
8871;SDS011;4472;52.092;9.820;2022-08-24T21:27:25;5.93;;;3.23;;
8871;SDS011;4472;52.092;9.820;2022-08-24T21:30:14;5.37;;;2.60;;
8871;SDS011;4472;52.092;9.820;2022-08-24T21:33:03;3.60;;;2.73;;
8871;SDS011;4472;52.092;9.820;2022-08-24T21:36:08;7.17;;;2.80;;
8871;SDS011;4472;52.092;9.820;2022-08-24T21:38:56;3.40;;;3.00;;
8871;SDS011;4472;52.092;9.820;2022-08-24T21:41:43;4.17;;;3.20;;
8871;SDS011;4472;52.092;9.820;2022-08-24T21:44:31;4.93;;;3.00;;
8871;SDS011;4472;52.092;9.820;2022-08-24T21:47:19;4.23;;;2.80;;
8871;SDS011;4472;52.092;9.820;2022-08-24T21:50:08;4.47;;;3.00;;
8871;SDS011;4472;52.092;9.820;2022-08-24T21:52:56;4.37;;;2.83;;
8871;SDS011;4472;52.092;9.820;2022-08-24T21:55:43;4.53;;;3.00;;
8871;SDS011;4472;52.092;9.820;2022-08-24T21:58:31;4.23;;;3.20;;
8871;SDS011;4472;52.092;9.820;2022-08-24T22:01:19;3.57;;;3.00;;
8871;SDS011;4472;52.092;9.820;2022-08-24T22:04:06;5.37;;;3.53;;
8871;SDS011;4472;52.092;9.820;2022-08-24T22:06:55;5.07;;;3.10;;
8871;SDS011;4472;52.092;9.820;2022-08-24T22:09:43;4.93;;;3.47;;
8871;SDS011;4472;52.092;9.820;2022-08-24T22:12:31;4.03;;;3.40;;
8871;SDS011;4472;52.092;9.820;2022-08-24T22:15:19;6.47;;;3.37;;
8871;SDS011;4472;52.092;9.820;2022-08-24T22:18:07;4.07;;;3.17;;
8871;SDS011;4472;52.092;9.820;2022-08-24T22:20:55;5.07;;;3.30;;
8871;SDS011;4472;52.092;9.820;2022-08-24T22:23:43;4.17;;;3.60;;
8871;SDS011;4472;52.092;9.820;2022-08-24T22:26:31;6.83;;;3.50;;
8871;SDS011;4472;52.092;9.820;2022-08-24T22:29:19;4.10;;;3.60;;
8871;SDS011;4472;52.092;9.820;2022-08-24T22:32:06;5.23;;;3.50;;
8871;SDS011;4472;52.092;9.820;2022-08-24T22:34:54;5.53;;;3.50;;
8871;SDS011;4472;52.092;9.820;2022-08-24T22:37:41;3.63;;;3.20;;
8871;SDS011;4472;52.092;9.820;2022-08-24T22:40:31;7.50;;;3.37;;
8871;SDS011;4472;52.092;9.820;2022-08-24T22:43:18;4.33;;;3.30;;
8871;SDS011;4472;52.092;9.820;2022-08-24T22:46:06;7.60;;;3.77;;
8871;SDS011;4472;52.092;9.820;2022-08-24T22:48:54;5.73;;;3.20;;
8871;SDS011;4472;52.092;9.820;2022-08-24T22:51:41;5.37;;;3.50;;
8871;SDS011;4472;52.092;9.820;2022-08-24T22:54:29;5.03;;;3.37;;
8871;SDS011;4472;52.092;9.820;2022-08-24T22:57:18;7.20;;;3.97;;
8871;SDS011;4472;52.092;9.820;2022-08-24T23:00:06;5.67;;;3.60;;
8871;SDS011;4472;52.092;9.820;2022-08-24T23:02:54;6.20;;;3.67;;
8871;SDS011;4472;52.092;9.820;2022-08-24T23:05:41;9.27;;;4.17;;
8871;SDS011;4472;52.092;9.820;2022-08-24T23:08:29;9.90;;;3.83;;
8871;SDS011;4472;52.092;9.820;2022-08-24T23:11:17;5.40;;;3.93;;
8871;SDS011;4472;52.092;9.820;2022-08-24T23:14:09;5.50;;;4.00;;
8871;SDS011;4472;52.092;9.820;2022-08-24T23:16:58;5.47;;;4.00;;
8871;SDS011;4472;52.092;9.820;2022-08-24T23:19:46;5.50;;;3.90;;
8871;SDS011;4472;52.092;9.820;2022-08-24T23:22:45;5.53;;;4.47;;
8871;SDS011;4472;52.092;9.820;2022-08-24T23:25:34;7.70;;;4.20;;
8871;SDS011;4472;52.092;9.820;2022-08-24T23:28:21;8.57;;;4.20;;
8871;SDS011;4472;52.092;9.820;2022-08-24T23:31:10;6.27;;;4.23;;
8871;SDS011;4472;52.092;9.820;2022-08-24T23:33:58;5.67;;;4.17;;
8871;SDS011;4472;52.092;9.820;2022-08-24T23:36:46;4.40;;;4.00;;
8871;SDS011;4472;52.092;9.820;2022-08-24T23:39:34;5.30;;;3.97;;
8871;SDS011;4472;52.092;9.820;2022-08-24T23:42:21;5.40;;;4.10;;
8871;SDS011;4472;52.092;9.820;2022-08-24T23:45:09;5.87;;;4.10;;
8871;SDS011;4472;52.092;9.820;2022-08-24T23:47:59;6.53;;;4.20;;
8871;SDS011;4472;52.092;9.820;2022-08-24T23:50:47;8.23;;;4.23;;
8871;SDS011;4472;52.092;9.820;2022-08-24T23:53:34;5.57;;;4.10;;
8871;SDS011;4472;52.092;9.820;2022-08-24T23:56:22;5.80;;;4.43;;
8871;SDS011;4472;52.092;9.820;2022-08-24T23:59:12;6.37;;;4.73;;
